Time;durP1;ratioP1;P1;durP2;ratioP2;P2;SDS_P1;SDS_P2;PMS_P1;PMS_P2;Temp;Humidity;BMP_temperature;BMP_pressure;BME280_temperature;BME280_humidity;BME280_pressure;Samples;Min_cycle;Max_cycle;Signal;HPM_P1;HPM_P2
2022/06/05 00:02:15;;;;;;;9.20;6.65;;;18.50;99.90;;;;;;5072305;28;20204;-67
2022/06/05 00:04:56;;;;;;;9.27;6.45;;;18.40;99.90;;;;;;5071622;28;20187;-67
2022/06/05 00:07:48;;;;;;;6.85;5.90;;;18.40;99.90;;;;;;5072928;28;20188;-67
2022/06/05 00:10:20;;;;;;;7.03;6.28;;;18.40;99.90;;;;;;5072078;28;20264;-67
2022/06/05 00:13:00;;;;;;;9.35;6.43;;;18.40;99.90;;;;;;5067153;28;20245;-67
2022/06/05 00:15:25;;;;;;;9.55;6.13;;;18.50;99.90;;;;;;5071917;28;20670;-67
2022/06/05 00:17:52;;;;;;;9.55;7.07;;;18.40;99.90;;;;;;5059501;28;20271;-66
2022/06/05 00:20:18;;;;;;;10.10;6.47;;;18.40;99.90;;;;;;5071039;28;20181;-67
2022/06/05 00:22:44;;;;;;;7.07;6.13;;;18.40;99.90;;;;;;5071012;28;20191;-66
2022/06/05 00:25:10;;;;;;;7.13;6.43;;;18.40;99.90;;;;;;5071357;28;20211;-66
2022/06/05 00:28:03;;;;;;;7.18;6.28;;;18.30;99.90;;;;;;5071891;28;20226;-66
2022/06/05 00:30:54;;;;;;;7.05;6.35;;;18.30;99.90;;;;;;5071619;28;20181;-66
2022/06/05 00:33:34;;;;;;;7.72;6.93;;;18.30;99.90;;;;;;5071803;28;20659;-67
2022/06/05 00:36:11;;;;;;;8.40;6.85;;;18.30;99.90;;;;;;5071205;28;20188;-67
2022/06/05 00:38:48;;;;;;;9.18;6.72;;;18.30;99.90;;;;;;5071298;28;20176;-67
2022/06/05 00:41:42;;;;;;;9.18;7.20;;;18.30;99.90;;;;;;5071703;28;20283;-66
2022/06/05 00:44:13;;;;;;;10.45;6.72;;;18.30;99.90;;;;;;5058746;28;20172;-66
2022/06/05 00:46:42;;;;;;;11.32;8.65;;;18.30;99.90;;;;;;5072105;28;20183;-67
2022/06/05 00:49:09;;;;;;;10.10;8.95;;;18.30;99.90;;;;;;5071150;28;20184;-66
2022/06/05 00:51:35;;;;;;;8.00;7.18;;;18.30;99.90;;;;;;5071963;28;20184;-67
2022/06/05 00:54:01;;;;;;;8.18;6.97;;;18.40;99.90;;;;;;5071403;28;20223;-67
2022/06/05 00:56:27;;;;;;;12.35;6.50;;;18.30;99.90;;;;;;5071433;28;20252;-66
2022/06/05 00:58:52;;;;;;;10.65;7.30;;;18.30;99.90;;;;;;5070542;28;20235;-66
2022/06/05 01:01:19;;;;;;;8.63;6.93;;;18.30;99.90;;;;;;5071206;28;20596;-67
2022/06/05 01:03:44;;;;;;;7.32;6.63;;;18.30;99.90;;;;;;5071333;28;20195;-67
2022/06/05 01:06:11;;;;;;;8.45;6.68;;;18.30;99.90;;;;;;5071308;28;20263;-67
2022/06/05 01:08:36;;;;;;;8.55;6.82;;;18.20;99.90;;;;;;5071148;28;20181;-67
2022/06/05 01:11:14;;;;;;;8.30;6.95;;;18.20;99.90;;;;;;5070704;28;20572;-66
2022/06/05 01:13:46;;;;;;;9.32;7.32;;;18.20;99.90;;;;;;5070074;28;20215;-67
2022/06/05 01:16:32;;;;;;;8.40;6.93;;;18.20;99.90;;;;;;5070487;28;20489;-67
2022/06/05 01:19:30;;;;;;;10.48;6.63;;;18.20;99.90;;;;;;5070430;28;20583;-67
2022/06/05 01:22:33;;;;;;;9.88;6.85;;;18.20;99.90;;;;;;5071448;28;20256;-66
2022/06/05 01:25:21;;;;;;;11.02;6.80;;;18.20;99.90;;;;;;5066228;28;20259;-66
2022/06/05 01:27:52;;;;;;;7.72;6.85;;;18.20;99.90;;;;;;5069595;28;20251;-66
2022/06/05 01:30:21;;;;;;;10.27;6.57;;;18.20;99.90;;;;;;5074827;28;20187;-67
2022/06/05 01:32:57;;;;;;;7.43;6.72;;;18.20;99.90;;;;;;5074200;28;20204;-67
2022/06/05 01:35:49;;;;;;;7.85;6.25;;;18.30;99.90;;;;;;5075106;28;20176;-67
2022/06/05 01:38:30;;;;;;;7.22;6.53;;;18.30;99.90;;;;;;5075184;28;20172;-66
2022/06/05 01:41:08;;;;;;;7.93;6.53;;;18.30;99.90;;;;;;5075271;28;20528;-66
2022/06/05 01:43:41;;;;;;;7.40;6.60;;;18.30;99.90;;;;;;5075069;28;20176;-67
2022/06/05 01:46:18;;;;;;;7.72;6.07;;;18.40;99.90;;;;;;5074905;28;20180;-66
2022/06/05 01:49:00;;;;;;;8.40;6.93;;;18.30;99.90;;;;;;5074846;28;20706;-67
2022/06/05 01:51:30;;;;;;;10.52;6.72;;;18.30;99.90;;;;;;5054305;28;20209;-67
2022/06/05 01:54:03;;;;;;;7.53;6.57;;;18.30;99.90;;;;;;5070033;28;20209;-67
2022/06/05 01:56:38;;;;;;;7.70;6.20;;;18.30;99.90;;;;;;5074753;28;20188;-67
2022/06/05 01:59:29;;;;;;;6.85;6.15;;;18.20;99.90;;;;;;5075105;28;20187;-67
2022/06/05 02:01:57;;;;;;;9.05;6.38;;;18.20;99.90;;;;;;5074498;28;20227;-67
2022/06/05 02:04:35;;;;;;;6.60;5.90;;;18.20;99.90;;;;;;5075029;28;20184;-67
2022/06/05 02:07:08;;;;;;;6.78;6.05;;;18.20;99.90;;;;;;5074270;28;20202;-66
2022/06/05 02:09:39;;;;;;;6.63;5.93;;;18.20;99.90;;;;;;5074665;28;20561;-66
2022/06/05 02:12:06;;;;;;;7.28;6.40;;;18.20;99.90;;;;;;5074227;28;20675;-66
2022/06/05 02:14:32;;;;;;;7.57;6.18;;;18.10;99.90;;;;;;5074231;28;20223;-67
2022/06/05 02:16:59;;;;;;;8.63;6.32;;;18.10;99.90;;;;;;5065964;28;20186;-68
2022/06/05 02:19:25;;;;;;;6.60;5.97;;;18.10;99.90;;;;;;5073809;28;20224;-67
2022/06/05 02:21:53;;;;;;;6.57;5.72;;;18.10;99.90;;;;;;5074735;28;20185;-67
2022/06/05 02:24:19;;;;;;;8.40;5.82;;;18.10;99.90;;;;;;5074302;28;20193;-67
2022/06/05 02:26:45;;;;;;;6.35;5.47;;;18.10;99.90;;;;;;5073746;28;20193;-67
2022/06/05 02:29:17;;;;;;;8.20;6.03;;;18.00;99.90;;;;;;5073984;28;20258;-67
2022/06/05 02:31:58;;;;;;;6.82;6.13;;;18.00;99.90;;;;;;5074597;28;20268;-67
2022/06/05 02:34:40;;;;;;;18.33;12.90;;;18.00;99.90;;;;;;5067803;28;20208;-69
2022/06/05 02:37:26;;;;;;;7.20;6.50;;;18.10;99.90;;;;;;5073765;28;20218;-67
2022/06/05 02:40:15;;;;;;;6.22;5.63;;;18.20;99.90;;;;;;5069617;28;20645;-68
2022/06/05 02:43:01;;;;;;;10.63;5.68;;;18.20;99.90;;;;;;5063496;28;20281;-68
2022/06/05 02:45:44;;;;;;;9.45;6.53;;;18.20;99.90;;;;;;5076200;28;20504;-67
2022/06/05 02:48:26;;;;;;;8.60;6.78;;;18.10;99.90;;;;;;5085006;28;20755;-67
2022/06/05 02:51:05;;;;;;;7.80;6.47;;;18.00;99.90;;;;;;5074949;28;20246;-67
2022/06/05 02:53:53;;;;;;;20.92;6.97;;;18.00;99.90;;;;;;5074358;28;20365;-68
2022/06/05 02:56:21;;;;;;;7.78;6.57;;;17.90;99.90;;;;;;5074309;28;20230;-68
2022/06/05 02:58:48;;;;;;;7.43;6.72;;;18.00;99.90;;;;;;5074708;28;20275;-68
2022/06/05 03:03:59;;;;;;;8.00;6.03;;;18.00;99.90;;;;;;5073769;28;20272;-68
2022/06/05 03:06:33;;;;;;;9.20;6.75;;;18.00;99.90;;;;;;5073973;28;20279;-67
2022/06/05 03:08:58;;;;;;;7.40;6.40;;;18.00;99.90;;;;;;5074149;28;20184;-67
2022/06/05 03:11:24;;;;;;;13.35;7.50;;;18.00;99.90;;;;;;5073921;28;20177;-67
2022/06/05 03:13:49;;;;;;;6.90;6.13;;;18.00;99.90;;;;;;5072879;28;20208;-67
2022/06/05 03:16:15;;;;;;;7.18;6.45;;;18.00;99.90;;;;;;5073532;28;20259;-67
2022/06/05 03:18:40;;;;;;;7.45;6.47;;;18.00;99.90;;;;;;5075463;28;20224;-67
2022/06/05 03:21:06;;;;;;;8.15;6.63;;;18.00;99.90;;;;;;5072913;28;20185;-68
2022/06/05 03:23:32;;;;;;;6.97;6.28;;;18.00;99.90;;;;;;5073503;28;20181;-68
2022/06/05 03:25:58;;;;;;;6.95;6.35;;;18.00;99.90;;;;;;5073329;28;20653;-67
2022/06/05 03:28:24;;;;;;;7.45;6.70;;;18.00;99.90;;;;;;5072952;28;20173;-67
2022/06/05 03:30:50;;;;;;;7.60;6.60;;;18.00;99.90;;;;;;5072784;28;20177;-67
2022/06/05 03:33:17;;;;;;;8.57;6.50;;;18.00;99.90;;;;;;5071747;28;20201;-67
2022/06/05 03:35:44;;;;;;;8.07;6.43;;;18.00;99.90;;;;;;5072774;28;20318;-68
2022/06/05 03:38:11;;;;;;;7.47;6.65;;;18.00;99.90;;;;;;5072650;28;20169;-67
2022/06/05 03:40:42;;;;;;;8.52;6.80;;;18.00;99.90;;;;;;5072665;28;20223;-67
2022/06/05 03:43:09;;;;;;;9.23;6.40;;;18.00;99.90;;;;;;5073064;28;20635;-67
2022/06/05 03:45:34;;;;;;;8.50;6.78;;;18.00;99.90;;;;;;5072598;28;20209;-67
2022/06/05 03:48:00;;;;;;;11.10;7.60;;;18.00;99.90;;;;;;5072388;28;20208;-68
2022/06/05 03:50:26;;;;;;;16.77;10.88;;;18.00;99.90;;;;;;5073071;28;20173;-68
2022/06/05 03:52:51;;;;;;;10.68;7.70;;;18.00;99.90;;;;;;5071185;28;20183;-68
2022/06/05 03:55:20;;;;;;;9.63;7.03;;;18.10;99.90;;;;;;5072680;28;20197;-69
2022/06/05 03:57:45;;;;;;;10.23;8.50;;;18.00;99.90;;;;;;5072522;28;20184;-68
2022/06/05 04:00:12;;;;;;;10.13;7.50;;;17.90;99.90;;;;;;5072798;28;20535;-68
2022/06/05 04:02:38;;;;;;;9.00;7.55;;;17.80;99.90;;;;;;5072573;28;20205;-68
2022/06/05 04:05:06;;;;;;;9.65;7.30;;;17.80;99.90;;;;;;5072547;28;20184;-68
2022/06/05 04:07:32;;;;;;;14.55;10.68;;;17.90;99.90;;;;;;5071357;28;20322;-68
2022/06/05 04:09:57;;;;;;;10.80;8.32;;;17.90;99.90;;;;;;5072718;28;20675;-67
2022/06/05 04:12:23;;;;;;;12.60;8.57;;;17.90;99.90;;;;;;5071381;28;20512;-68
2022/06/05 04:14:48;;;;;;;10.07;7.72;;;18.00;99.90;;;;;;5071293;28;20217;-67
2022/06/05 04:17:14;;;;;;;12.73;9.07;;;18.00;99.90;;;;;;5071748;28;20180;-67
2022/06/05 04:19:39;;;;;;;12.23;8.75;;;18.00;99.90;;;;;;5071730;28;20300;-68
2022/06/05 04:22:06;;;;;;;9.38;7.90;;;18.00;99.90;;;;;;5071474;28;20516;-67
2022/06/05 04:24:32;;;;;;;8.45;7.32;;;18.10;99.90;;;;;;5071994;28;20184;-67
2022/06/05 04:26:58;;;;;;;12.27;8.25;;;18.00;99.90;;;;;;5072447;28;20223;-67
2022/06/05 04:29:24;;;;;;;9.07;7.57;;;18.00;99.90;;;;;;5071779;28;20185;-67
2022/06/05 04:31:50;;;;;;;9.98;8.27;;;17.90;99.90;;;;;;5071770;28;20193;-66
2022/06/05 04:34:19;;;;;;;10.93;8.60;;;17.90;99.90;;;;;;5070497;28;20255;-66
2022/06/05 04:36:45;;;;;;;12.77;8.60;;;17.80;99.90;;;;;;5071706;28;20239;-66
2022/06/05 04:39:12;;;;;;;10.88;8.63;;;17.80;99.90;;;;;;5070292;28;20181;-66
2022/06/05 04:41:38;;;;;;;10.63;8.40;;;17.80;99.90;;;;;;5071153;28;20259;-67
2022/06/05 04:44:05;;;;;;;10.40;8.55;;;17.70;99.90;;;;;;5071778;28;20651;-67
2022/06/05 04:46:32;;;;;;;11.60;7.88;;;17.70;99.90;;;;;;5070999;28;20181;-66
2022/06/05 04:48:57;;;;;;;12.02;9.43;;;17.80;99.90;;;;;;5070883;28;20214;-66
2022/06/05 04:51:23;;;;;;;12.65;8.15;;;17.80;99.90;;;;;;5071527;28;20177;-66
2022/06/05 04:53:51;;;;;;;11.43;8.45;;;17.80;99.90;;;;;;5071649;28;20255;-66
2022/06/05 04:56:20;;;;;;;12.68;9.52;;;17.80;99.90;;;;;;5071368;28;20192;-66
2022/06/05 04:58:46;;;;;;;11.02;9.27;;;17.70;99.90;;;;;;5070905;28;20544;-67
2022/06/05 05:01:27;;;;;;;9.43;8.15;;;17.70;99.90;;;;;;5069584;28;20180;-66
2022/06/05 05:03:55;;;;;;;11.40;8.88;;;17.70;99.90;;;;;;5070727;28;20181;-66
2022/06/05 05:06:23;;;;;;;12.25;9.15;;;17.80;99.90;;;;;;5070915;28;20188;-67
2022/06/05 05:08:49;;;;;;;11.70;9.05;;;17.80;99.90;;;;;;5059679;28;20204;-68
2022/06/05 05:11:15;;;;;;;10.00;8.45;;;17.70;99.90;;;;;;5071314;28;20238;-67
2022/06/05 05:13:41;;;;;;;14.20;10.52;;;17.70;99.90;;;;;;5070746;28;20216;-67
2022/06/05 05:16:07;;;;;;;13.52;10.20;;;17.70;99.90;;;;;;5067731;28;20701;-67
2022/06/05 05:18:33;;;;;;;12.73;9.35;;;17.70;99.90;;;;;;5060796;28;20216;-68
2022/06/05 05:21:14;;;;;;;11.82;9.35;;;17.70;99.90;;;;;;5070582;28;20238;-67
2022/06/05 05:23:40;;;;;;;10.73;9.38;;;17.50;99.90;;;;;;5069713;28;20561;-67
2022/06/05 05:26:20;;;;;;;12.77;9.63;;;17.50;99.90;;;;;;5070676;28;20238;-67
2022/06/05 05:28:46;;;;;;;12.13;9.18;;;17.50;99.90;;;;;;5070595;28;20204;-67
2022/06/05 05:31:33;;;;;;;12.70;9.40;;;17.50;99.90;;;;;;5071449;28;20177;-67
2022/06/05 05:34:00;;;;;;;10.18;8.80;;;17.40;99.90;;;;;;5069957;28;20310;-66
2022/06/05 05:36:26;;;;;;;16.00;10.70;;;17.40;99.90;;;;;;5071068;28;20285;-68
2022/06/05 05:44:22;;;;;;;14.48;10.07;;;17.40;99.90;;;;;;5071159;28;20183;-68
2022/06/05 05:46:47;;;;;;;12.65;10.98;;;17.50;99.90;;;;;;5070926;28;20610;-67
2022/06/05 05:49:14;;;;;;;12.07;9.98;;;17.40;99.90;;;;;;5070389;28;20191;-68
2022/06/05 05:51:41;;;;;;;12.60;9.93;;;17.40;99.90;;;;;;5071652;28;20197;-68
2022/06/05 05:54:07;;;;;;;12.70;10.25;;;17.40;99.90;;;;;;5070529;28;20212;-68
2022/06/05 05:56:33;;;;;;;13.88;11.35;;;17.20;99.90;;;;;;5071295;28;20230;-69
2022/06/05 05:58:58;;;;;;;14.63;11.57;;;17.40;99.90;;;;;;5070972;28;20184;-67
2022/06/05 06:01:25;;;;;;;13.48;10.38;;;17.50;99.90;;;;;;5070492;28;20181;-67
2022/06/05 06:03:50;;;;;;;12.35;10.52;;;17.90;99.90;;;;;;5071056;28;20628;-68
2022/06/05 06:06:16;;;;;;;14.55;10.63;;;18.20;99.90;;;;;;5070774;28;20191;-68
2022/06/05 06:08:41;;;;;;;12.43;10.35;;;18.30;99.90;;;;;;5070967;28;20181;-68
2022/06/05 06:11:07;;;;;;;14.57;10.82;;;18.50;99.90;;;;;;5067427;28;20282;-69
2022/06/05 06:13:33;;;;;;;13.07;9.10;;;18.80;99.90;;;;;;5070735;28;20651;-69
2022/06/05 06:15:58;;;;;;;12.45;9.05;;;19.00;99.90;;;;;;5068799;28;20538;-69
2022/06/05 06:18:24;;;;;;;10.68;8.77;;;19.10;99.90;;;;;;5066766;28;20216;-70
2022/06/05 06:20:50;;;;;;;11.85;9.02;;;19.30;99.90;;;;;;5074597;28;20198;-68
2022/06/05 06:23:15;;;;;;;10.95;8.68;;;19.50;99.90;;;;;;5073848;28;20185;-68
2022/06/05 06:25:41;;;;;;;9.95;8.07;;;19.60;99.90;;;;;;5074606;28;20535;-67
2022/06/05 06:28:08;;;;;;;10.02;9.00;;;19.50;99.90;;;;;;5074327;28;20322;-67
2022/06/05 06:30:34;;;;;;;10.35;8.65;;;19.30;99.90;;;;;;5073989;28;20184;-67
2022/06/05 06:33:01;;;;;;;10.10;9.07;;;19.20;99.90;;;;;;5074049;28;20204;-70
2022/06/05 06:35:27;;;;;;;12.43;8.50;;;19.10;99.90;;;;;;5074081;28;20181;-75
2022/06/05 06:37:53;;;;;;;8.95;8.05;;;19.20;99.90;;;;;;5074372;28;20184;-72
2022/06/05 06:40:19;;;;;;;11.18;8.50;;;19.20;99.90;;;;;;5073611;28;20599;-73
2022/06/05 06:42:44;;;;;;;9.25;8.13;;;19.20;99.90;;;;;;5074146;28;20193;-69
2022/06/05 06:45:10;;;;;;;8.32;7.47;;;19.20;99.90;;;;;;5073838;28;20173;-67
2022/06/05 06:47:36;;;;;;;12.13;7.60;;;19.10;99.90;;;;;;5074443;28;20196;-66
2022/06/05 06:50:02;;;;;;;114.70;67.03;;;19.00;99.90;;;;;;5073664;28;20178;-67
2022/06/05 06:52:27;;;;;;;112.75;70.35;;;19.00;99.90;;;;;;5074329;28;20181;-67
2022/06/05 06:54:54;;;;;;;92.85;57.38;;;19.10;99.90;;;;;;5073442;28;20219;-71
2022/06/05 06:57:19;;;;;;;21.55;16.05;;;19.10;99.90;;;;;;5074156;28;20204;-69
2022/06/05 06:59:45;;;;;;;12.93;10.40;;;19.10;99.90;;;;;;5074037;28;20744;-67
2022/06/05 07:02:10;;;;;;;10.23;8.80;;;19.20;99.90;;;;;;5074035;28;20173;-69
2022/06/05 07:04:36;;;;;;;8.40;7.63;;;19.10;99.90;;;;;;5074023;28;20180;-69
2022/06/05 07:07:01;;;;;;;12.18;9.93;;;19.10;99.90;;;;;;5073700;28;20180;-69
2022/06/05 07:09:27;;;;;;;34.45;24.35;;;18.90;99.90;;;;;;5073757;28;20730;-69
2022/06/05 07:11:52;;;;;;;9.98;8.88;;;18.80;99.90;;;;;;5073631;28;20238;-68
2022/06/05 07:14:18;;;;;;;12.35;10.38;;;18.70;99.90;;;;;;5072761;28;20235;-68
2022/06/05 07:16:44;;;;;;;10.63;9.38;;;18.50;99.90;;;;;;5071021;28;20267;-68
2022/06/05 07:19:10;;;;;;;12.88;8.82;;;18.40;99.90;;;;;;5073030;28;20224;-68
2022/06/05 07:21:35;;;;;;;10.80;8.55;;;18.40;99.90;;;;;;5073614;28;20686;-69
2022/06/05 07:24:01;;;;;;;11.18;8.35;;;18.40;99.90;;;;;;5073445;28;20176;-68
2022/06/05 07:26:30;;;;;;;10.15;9.05;;;18.40;99.90;;;;;;5072358;28;20583;-69
2022/06/05 07:28:56;;;;;;;65.05;39.72;;;18.40;99.90;;;;;;5072694;28;20555;-68
2022/06/05 07:31:23;;;;;;;62.20;40.70;;;18.40;99.90;;;;;;5073356;28;20180;-68
2022/06/05 07:33:49;;;;;;;13.45;10.48;;;18.50;99.90;;;;;;5071856;28;20212;-68
2022/06/05 07:36:17;;;;;;;17.23;12.48;;;18.60;99.90;;;;;;5058558;28;20674;-67
2022/06/05 07:38:43;;;;;;;11.98;9.40;;;18.70;99.90;;;;;;5072498;28;20204;-67
2022/06/05 07:41:38;;;;;;;9.82;8.73;;;18.90;99.90;;;;;;5072987;28;20176;-67
2022/06/05 07:44:05;;;;;;;10.02;8.05;;;19.10;99.90;;;;;;5072707;28;20197;-67
2022/06/05 07:46:31;;;;;;;8.60;7.28;;;19.10;99.90;;;;;;5070836;28;20706;-68
2022/06/05 07:48:57;;;;;;;8.55;7.25;;;19.10;99.90;;;;;;5060539;28;20177;-66
2022/06/05 07:54:27;;;;;;;8.27;7.15;;;19.00;99.90;;;;;;5064834;28;20213;-69
2022/06/05 07:57:08;;;;;;;8.05;6.90;;;19.10;99.90;;;;;;5072442;28;20254;-67
2022/06/05 07:59:37;;;;;;;7.80;7.00;;;19.00;99.90;;;;;;5072248;28;20188;-68
2022/06/05 08:02:06;;;;;;;8.57;7.18;;;19.00;99.90;;;;;;5072330;28;20177;-68
2022/06/05 08:04:33;;;;;;;7.75;6.80;;;19.00;99.90;;;;;;5072910;28;20187;-68
2022/06/05 08:07:00;;;;;;;7.78;6.80;;;19.10;99.90;;;;;;5072173;28;20177;-67
2022/06/05 08:09:27;;;;;;;9.70;6.40;;;19.30;99.90;;;;;;5072236;28;20685;-67
2022/06/05 08:11:52;;;;;;;6.97;6.28;;;19.30;99.90;;;;;;5054012;28;20177;-67
2022/06/05 08:14:18;;;;;;;7.00;6.15;;;19.30;99.90;;;;;;5072331;28;20671;-68
2022/06/05 08:16:44;;;;;;;7.80;7.00;;;19.30;99.90;;;;;;5070197;28;20272;-68
2022/06/05 08:19:12;;;;;;;6.78;6.05;;;19.30;99.90;;;;;;5071663;28;20315;-67
2022/06/05 08:21:39;;;;;;;7.95;6.72;;;19.30;99.90;;;;;;5071968;28;20707;-67
2022/06/05 08:24:05;;;;;;;8.15;6.90;;;19.40;99.90;;;;;;5071794;28;20183;-67
2022/06/05 08:26:30;;;;;;;7.53;6.38;;;19.50;99.90;;;;;;5072286;28;20487;-68
2022/06/05 08:28:56;;;;;;;7.10;6.10;;;19.60;99.90;;;;;;5071695;28;20180;-68
2022/06/05 08:31:21;;;;;;;7.60;6.60;;;19.60;99.90;;;;;;5070803;28;20533;-67
2022/06/05 08:33:47;;;;;;;6.95;5.72;;;19.70;99.90;;;;;;5071518;28;20213;-67
2022/06/05 08:36:13;;;;;;;7.10;5.88;;;19.90;99.90;;;;;;5071747;28;20181;-67
2022/06/05 08:41:28;;;;;;;7.10;6.13;;;20.00;99.90;;;;;;5072403;28;20188;-66
2022/06/05 08:43:59;;;;;;;6.50;5.82;;;20.10;99.90;;;;;;5071964;28;20234;-67
2022/06/05 08:46:29;;;;;;;8.75;5.43;;;20.40;99.90;;;;;;5072090;28;20180;-70
2022/06/05 08:49:17;;;;;;;6.70;6.10;;;20.60;99.90;;;;;;5072144;28;20177;-68
2022/06/05 08:52:17;;;;;;;6.60;6.00;;;20.90;99.90;;;;;;5071592;28;20220;-67
2022/06/05 08:55:14;;;;;;;5.93;5.28;;;21.50;99.90;;;;;;5052219;28;20227;-67
2022/06/05 08:57:48;;;;;;;25.90;16.55;;;21.90;99.90;;;;;;5070712;28;20279;-67
2022/06/05 09:00:26;;;;;;;35.45;21.52;;;22.20;99.90;;;;;;5071005;28;20524;-68
2022/06/05 09:03:09;;;;;;;11.68;8.15;;;22.50;99.90;;;;;;5071052;28;20176;-68
2022/06/05 09:05:58;;;;;;;95.20;56.15;;;22.80;99.90;;;;;;5072069;28;20184;-68
2022/06/05 09:08:28;;;;;;;21.63;14.75;;;22.90;99.90;;;;;;5071169;28;20635;-67
2022/06/05 09:10:59;;;;;;;8.30;6.65;;;23.20;99.90;;;;;;5071919;28;20546;-68
2022/06/05 09:13:42;;;;;;;13.82;10.27;;;23.70;99.90;;;;;;5070406;28;20564;-68
2022/06/05 09:16:13;;;;;;;6.13;4.38;;;24.10;99.90;;;;;;5071023;28;20222;-68
2022/06/05 09:18:45;;;;;;;11.95;8.25;;;24.30;99.90;;;;;;5067201;28;20270;-68
2022/06/05 09:21:39;;;;;;;19.27;12.75;;;24.60;99.90;;;;;;5071294;28;20192;-68
2022/06/05 09:24:27;;;;;;;108.68;66.82;;;24.80;99.90;;;;;;5071050;28;20214;-68
2022/06/05 09:27:00;;;;;;;21.05;14.45;;;25.30;99.90;;;;;;5051863;28;20169;-68
2022/06/05 09:29:48;;;;;;;13.80;8.07;;;25.80;99.90;;;;;;5067353;28;20177;-67
2022/06/05 09:32:41;;;;;;;11.57;8.65;;;26.20;99.90;;;;;;5070552;28;20210;-65
2022/06/05 09:35:15;;;;;;;7.03;5.15;;;26.60;99.90;;;;;;5066062;28;20772;-65
2022/06/05 09:38:02;;;;;;;16.25;11.48;;;26.50;99.90;;;;;;5070690;28;20736;-66
2022/06/05 09:40:36;;;;;;;3.97;3.58;;;26.50;99.90;;;;;;5070912;28;20184;-66
2022/06/05 09:43:17;;;;;;;6.18;3.75;;;26.70;99.90;;;;;;5071045;28;20231;-68
2022/06/05 09:46:16;;;;;;;3.33;2.95;;;26.60;99.90;;;;;;5065334;28;20568;-67
2022/06/05 09:48:51;;;;;;;4.32;3.63;;;26.60;99.90;;;;;;5070626;28;20567;-66
2022/06/05 09:51:18;;;;;;;5.00;3.22;;;26.80;99.90;;;;;;5074537;28;20658;-66
2022/06/05 09:54:02;;;;;;;10.25;6.60;;;26.80;99.90;;;;;;5073586;28;20221;-66
2022/06/05 09:58:24;;;;;;;26.23;16.35;;;26.80;99.90;;;;;;5070977;28;20639;-67
2022/06/05 10:00:00;;;;;;;79.93;51.42;;;27.00;99.90;;;;;;5055312;28;20641;-67
2022/06/05 10:02:26;;;;;;;24.67;15.90;;;27.30;99.90;;;;;;5065229;28;20188;-67
2022/06/05 10:04:52;;;;;;;10.90;8.07;;;27.50;99.90;;;;;;5074936;28;20189;-67
2022/06/05 10:07:28;;;;;;;4.07;3.20;;;27.80;99.90;;;;;;5073235;28;20282;-67
2022/06/05 10:09:54;;;;;;;6.75;5.88;;;27.90;99.90;;;;;;5066253;28;20181;-66
2022/06/05 10:12:28;;;;;;;4.00;2.95;;;28.20;99.90;;;;;;5055004;28;20196;-65
2022/06/05 10:15:04;;;;;;;3.70;3.15;;;28.20;99.20;;;;;;5069141;28;20231;-66
2022/06/05 10:17:50;;;;;;;5.90;4.15;;;27.90;99.90;;;;;;5075084;28;20184;-66
2022/06/05 10:20:54;;;;;;;3.83;3.42;;;27.60;99.90;;;;;;5075055;28;20188;-66
2022/06/05 10:23:35;;;;;;;58.00;39.13;;;27.40;99.90;;;;;;5074855;28;20184;-66
2022/06/05 10:26:37;;;;;;;10.27;8.25;;;27.30;99.90;;;;;;5074654;28;20184;-66
2022/06/05 10:29:25;;;;;;;9.60;7.22;;;26.90;99.90;;;;;;5074843;28;20688;-67
2022/06/05 10:31:51;;;;;;;28.85;20.67;;;26.60;99.90;;;;;;5074147;28;20203;-67
2022/06/05 10:34:40;;;;;;;8.57;5.45;;;26.80;99.90;;;;;;5073924;28;20212;-68
2022/06/05 10:37:47;;;;;;;36.35;26.63;;;26.80;99.90;;;;;;5074188;28;20267;-68
2022/06/05 10:40:20;;;;;;;42.90;26.77;;;27.00;99.90;;;;;;5052321;28;20220;-67
2022/06/05 10:42:52;;;;;;;82.97;54.35;;;27.30;99.90;;;;;;5052223;28;20177;-67
2022/06/05 10:45:23;;;;;;;49.85;34.03;;;27.50;99.90;;;;;;5056152;28;20280;-67
2022/06/05 10:48:06;;;;;;;7.78;4.50;;;27.60;99.90;;;;;;5054369;28;20173;-68
2022/06/05 10:50:43;;;;;;;43.38;29.60;;;27.50;99.90;;;;;;5054577;28;20174;-67
2022/06/05 10:53:31;;;;;;;6.45;5.75;;;27.40;99.90;;;;;;5073183;28;20181;-67
2022/06/05 10:56:09;;;;;;;17.42;13.55;;;27.30;99.90;;;;;;5073395;28;20224;-68
2022/06/05 10:58:54;;;;;;;7.47;5.22;;;27.40;99.90;;;;;;5070723;28;20187;-68
2022/06/05 11:01:45;;;;;;;24.83;19.13;;;27.10;99.90;;;;;;5060290;28;20181;-68
2022/06/05 11:04:37;;;;;;;94.43;63.55;;;26.80;99.90;;;;;;5073961;28;20214;-68
2022/06/05 11:07:19;;;;;;;27.95;20.58;;;26.50;99.90;;;;;;5074092;28;20181;-67
2022/06/05 11:10:16;;;;;;;40.15;27.83;;;26.60;99.90;;;;;;5073938;28;20705;-68
2022/06/05 11:15:54;;;;;;;18.45;13.45;;;26.50;99.90;;;;;;5068996;28;20690;-68
2022/06/05 11:18:33;;;;;;;16.00;9.30;;;26.40;99.90;;;;;;5065567;28;20561;-67
2022/06/05 11:21:01;;;;;;;7.18;5.50;;;26.30;99.90;;;;;;5073989;28;20177;-67
2022/06/05 11:23:32;;;;;;;10.38;7.22;;;26.40;99.90;;;;;;5073714;28;20384;-67
2022/06/05 11:26:35;;;;;;;6.65;5.32;;;26.40;99.90;;;;;;5073390;28;20172;-68
2022/06/05 11:29:10;;;;;;;16.55;12.13;;;26.40;99.90;;;;;;5072495;28;20179;-67
2022/06/05 11:31:39;;;;;;;12.65;9.10;;;26.60;99.90;;;;;;5073179;28;20184;-68
2022/06/05 11:34:16;;;;;;;18.33;12.65;;;26.80;99.90;;;;;;5070318;28;20223;-67
2022/06/05 11:36:51;;;;;;;5.82;4.82;;;26.80;99.90;;;;;;5073235;28;20172;-67
2022/06/05 11:39:20;;;;;;;9.13;6.70;;;26.70;99.90;;;;;;5064653;28;20177;-67
2022/06/05 11:42:15;;;;;;;4.55;3.40;;;26.70;99.90;;;;;;5071476;28;20183;-67
2022/06/05 11:44:56;;;;;;;6.72;5.63;;;26.60;99.90;;;;;;5073512;28;20173;-67
2022/06/05 11:47:31;;;;;;;18.58;13.55;;;26.40;99.90;;;;;;5073259;28;20183;-67
2022/06/05 11:50:15;;;;;;;5.05;3.45;;;26.40;99.90;;;;;;5072647;28;20183;-67
2022/06/05 11:52:52;;;;;;;3.92;3.40;;;26.40;99.90;;;;;;5053393;28;20174;-67
2022/06/05 11:55:37;;;;;;;5.88;4.53;;;26.70;99.90;;;;;;5069243;28;20216;-68
2022/06/05 11:58:57;;;;;;;4.82;3.22;;;27.30;99.90;;;;;;5073192;28;20264;-68
2022/06/05 12:01:28;;;;;;;5.80;3.00;;;27.90;99.90;;;;;;5031046;28;20190;-69
2022/06/05 12:04:13;;;;;;;5.30;4.20;;;28.00;99.90;;;;;;5054456;28;20192;-67
2022/06/05 12:06:44;;;;;;;4.28;3.53;;;28.30;99.80;;;;;;5072883;28;20204;-72
2022/06/05 12:09:16;;;;;;;4.50;3.63;;;28.30;98.80;;;;;;5072363;28;20250;-66
2022/06/05 12:12:08;;;;;;;4.80;3.45;;;28.00;99.00;;;;;;5072203;28;20709;-64
2022/06/05 12:14:42;;;;;;;31.15;20.58;;;27.70;99.00;;;;;;5071208;28;20315;-68
2022/06/05 12:17:16;;;;;;;5.53;3.83;;;27.40;99.30;;;;;;5069068;28;20234;-67
2022/06/05 12:19:59;;;;;;;16.80;10.13;;;27.00;99.70;;;;;;5072739;28;20220;-68
2022/06/05 12:22:47;;;;;;;6.65;3.45;;;26.80;99.90;;;;;;5072084;28;20274;-70
2022/06/05 12:25:12;;;;;;;19.90;13.95;;;26.30;99.90;;;;;;5072527;28;20711;-69
2022/06/05 12:27:50;;;;;;;8.25;5.32;;;25.90;99.90;;;;;;5072686;28;20307;-68
2022/06/05 12:30:23;;;;;;;14.18;8.35;;;25.60;99.90;;;;;;5072586;28;20165;-68
2022/06/05 12:33:15;;;;;;;15.73;6.70;;;25.40;99.90;;;;;;5072514;28;20180;-68
2022/06/05 12:35:44;;;;;;;20.60;13.75;;;25.10;99.90;;;;;;5072075;28;20191;-67
2022/06/05 12:38:36;;;;;;;16.30;10.65;;;24.90;99.90;;;;;;5072233;28;20536;-67
2022/06/05 12:41:19;;;;;;;12.15;7.38;;;24.80;99.90;;;;;;5072214;28;20230;-68
2022/06/05 12:44:22;;;;;;;24.90;17.55;;;24.70;99.90;;;;;;5071778;28;20631;-69
2022/06/05 12:47:01;;;;;;;20.88;14.32;;;24.40;99.90;;;;;;5055186;28;20181;-68
2022/06/05 12:49:55;;;;;;;14.50;9.27;;;24.40;99.90;;;;;;5060264;28;20261;-68
2022/06/05 12:52:35;;;;;;;15.45;11.07;;;24.30;99.90;;;;;;5071550;28;20177;-68
2022/06/05 12:55:18;;;;;;;5.40;3.10;;;24.30;99.90;;;;;;5070664;28;20223;-68
2022/06/05 12:57:46;;;;;;;5.70;3.75;;;24.00;99.90;;;;;;5072231;28;20195;-68
2022/06/05 13:00:23;;;;;;;4.72;3.55;;;23.30;99.90;;;;;;5072093;28;20169;-68
2022/06/05 13:03:01;;;;;;;5.82;5.07;;;22.60;99.90;;;;;;5071926;28;20187;-68
2022/06/05 13:05:36;;;;;;;9.70;4.45;;;22.10;99.90;;;;;;5072010;28;20172;-67
2022/06/05 13:08:11;;;;;;;4.65;3.42;;;21.80;99.90;;;;;;5071563;28;20176;-68
2022/06/05 13:11:01;;;;;;;10.18;5.50;;;21.80;99.90;;;;;;5071516;28;20169;-68
2022/06/05 13:13:41;;;;;;;6.85;5.53;;;21.70;99.90;;;;;;5071464;28;20223;-68
2022/06/05 13:16:33;;;;;;;10.23;6.03;;;21.60;99.90;;;;;;5067201;28;20195;-68
2022/06/05 13:19:35;;;;;;;2.95;1.60;;;21.70;99.90;;;;;;5067724;28;20240;-66
2022/06/05 13:22:27;;;;;;;6.00;2.30;;;21.60;99.90;;;;;;5065002;28;20218;-66
2022/06/05 13:25:13;;;;;;;4.82;2.35;;;21.30;99.90;;;;;;5063909;28;20648;-66
2022/06/05 13:28:13;;;;;;;6.57;2.40;;;20.80;99.90;;;;;;5064564;28;20176;-67
2022/06/05 13:30:52;;;;;;;5.40;2.50;;;20.50;99.90;;;;;;5057807;28;20165;-67
2022/06/05 13:33:30;;;;;;;6.30;2.38;;;20.30;99.90;;;;;;5071277;28;20179;-66